Time;durP1;ratioP1;P1;durP2;ratioP2;P2;SDS_P1;SDS_P2;PMS_P1;PMS_P2;Temp;Humidity;BMP_temperature;BMP_pressure;BME280_temperature;BME280_humidity;BME280_pressure;Samples;Min_cycle;Max_cycle;Signal;HPM_P1;HPM_P2
2021/12/22 00:01:28;;;;;;;;;;;;;;;;;;5055662;28;1894;-86
2021/12/22 00:03:54;;;;;;;;;;;;;;;;;;5053501;28;1599;-86
2021/12/22 00:06:21;;;;;;;;;;;;;;;;;;5053756;28;1318;-86
2021/12/22 00:08:46;;;;;;;;;;;;;;;;;;5053916;28;1341;-86
2021/12/22 00:11:12;;;;;;;;;;;;;;;;;;5055527;28;1011;-86
2021/12/22 00:13:37;;;;;;;;;;;;;;;;;;5054020;28;1194;-86
2021/12/22 00:16:02;;;;;;;;;;;;;;;;;;5054173;28;1377;-86
2021/12/22 00:18:27;;;;;;;;;;;;;;;;;;5055313;28;1175;-86
2021/12/22 00:20:52;;;;;;;;;;;;;;;;;;5055627;28;1890;-86
2021/12/22 00:23:17;;;;;;;;;;;;;;;;;;5054608;28;1581;-87
2021/12/22 00:25:42;;;;;;;;;;;;;;;;;;5053720;28;1179;-86
2021/12/22 00:28:07;;;;;;;;;;;;;;;;;;5052537;28;1262;-88
2021/12/22 00:30:32;;;;;;;;;;;;;;;;;;5055077;28;805;-86
2021/12/22 00:33:03;;;;;;;;;;;;;;;;;;5053645;28;1267;-86
2021/12/22 00:35:37;;;;;;;;;;;;;;;;;;5053293;28;1335;-88
2021/12/22 00:38:02;;;;;;;;;;;;;;;;;;5052473;28;1349;-88
2021/12/22 00:40:27;;;;;;;;;;;;;;;;;;5052051;28;1895;-88
2021/12/22 00:42:52;;;;;;;;;;;;;;;;;;5052151;28;1155;-88
2021/12/22 00:45:18;;;;;;;;;;;;;;;;;;5052190;28;1211;-88
2021/12/22 00:47:43;;;;;;;;;;;;;;;;;;5055647;28;1211;-88
2021/12/22 00:50:08;;;;;;;;;;;;;;;;;;5056052;28;1582;-88
2021/12/22 00:52:33;;;;;;;;;;;;;;;;;;5056247;28;1514;-89
2021/12/22 00:54:58;;;;;;;;;;;;;;;;;;5057947;28;829;-88
2021/12/22 00:57:23;;;;;;;;;;;;;;;;;;5058501;28;1237;-87
2021/12/22 00:59:48;;;;;;;;;;;;;;;;;;5056303;28;2038;-88
2021/12/22 01:02:13;;;;;;;;;;;;;;;;;;5057379;28;1019;-88
2021/12/22 01:04:38;;;;;;;;;;;;;;;;;;5057220;28;1030;-88
2021/12/22 01:07:03;;;;;;;;;;;;;;;;;;5056745;28;1331;-86
2021/12/22 01:09:29;;;;;;;;;;;;;;;;;;5057568;28;1311;-86
2021/12/22 01:11:54;;;;;;;;;;;;;;;;;;5059079;28;1600;-86
2021/12/22 01:14:20;;;;;;;;;;;;;;;;;;5061181;28;1274;-87
2021/12/22 01:16:48;;;;;;;;;;;;;;;;;;5062780;28;1641;-87
2021/12/22 01:19:16;;;;;;;;;;;;;;;;;;5043112;28;1279;-86
2021/12/22 01:21:50;;;;;;;;;;;;;;;;;;5043520;28;1870;-87
2021/12/22 01:24:22;;;;;;;;;;;;;;;;;;5047478;28;1353;-88
2021/12/22 01:26:52;;;;;;;;;;;;;;;;;;5048511;28;1618;-87
2021/12/22 01:29:17;;;;;;;;;;;;;;;;;;5076327;28;805;-88
2021/12/22 01:31:42;;;;;;;;;;;;;;;;;;5064609;28;1334;-88
2021/12/22 01:34:08;;;;;;;;;;;;;;;;;;5055669;28;1366;-88
2021/12/22 01:36:33;;;;;;;;;;;;;;;;;;5055622;28;1678;-87
2021/12/22 01:38:58;;;;;;;;;;;;;;;;;;5055645;28;1280;-87
2021/12/22 01:41:23;;;;;;;;;;;;;;;;;;5053311;28;1949;-88
2021/12/22 01:43:49;;;;;;;;;;;;;;;;;;5055074;28;1622;-86
2021/12/22 01:49:09;;;;;;;;;;;;;;;;;;5055637;28;1362;-86
2021/12/22 01:49:10;;;;;;;;;;;;;;;;;;5056454;28;777;-88
2021/12/22 01:51:35;;;;;;;;;;;;;;;;;;5059469;28;891;-87
2021/12/22 01:54:00;;;;;;;;;;;;;;;;;;5057527;28;1311;-87
2021/12/22 01:56:27;;;;;;;;;;;;;;;;;;5059213;28;1594;-86
2021/12/22 01:58:52;;;;;;;;;;;;;;;;;;5055347;28;1255;-86
2021/12/22 02:01:17;;;;;;;;;;;;;;;;;;5054939;28;1898;-87
2021/12/22 02:03:42;;;;;;;;;;;;;;;;;;5057860;28;1665;-85
2021/12/22 02:06:08;;;;;;;;;;;;;;;;;;5059066;28;1215;-86
2021/12/22 02:08:33;;;;;;;;;;;;;;;;;;5058337;28;1330;-86
2021/12/22 02:10:58;;;;;;;;;;;;;;;;;;5060034;28;1508;-86
2021/12/22 02:13:29;;;;;;;;;;;;;;;;;;5058439;28;1685;-85
2021/12/22 02:15:54;;;;;;;;;;;;;;;;;;5059238;28;1701;-86
2021/12/22 02:18:21;;;;;;;;;;;;;;;;;;5058547;28;1365;-86
2021/12/22 02:20:46;;;;;;;;;;;;;;;;;;5059456;28;1941;-86
2021/12/22 02:23:12;;;;;;;;;;;;;;;;;;5058855;28;1349;-85
2021/12/22 02:25:44;;;;;;;;;;;;;;;;;;5059116;28;1318;-86
2021/12/22 02:28:16;;;;;;;;;;;;;;;;;;5058445;28;1363;-86
2021/12/22 02:30:41;;;;;;;;;;;;;;;;;;5058236;28;1474;-86
2021/12/22 02:33:34;;;;;;;;;;;;;;;;;;5055743;28;1356;-88
2021/12/22 02:38:20;;;;;;;;;;;;;;;;;;5056463;28;834;-86
2021/12/22 02:40:45;;;;;;;;;;;;;;;;;;5055867;28;1912;-86
2021/12/22 02:43:10;;;;;;;;;;;;;;;;;;5058009;28;1206;-86
2021/12/22 02:45:36;;;;;;;;;;;;;;;;;;5056470;28;1345;-88
2021/12/22 02:48:01;;;;;;;;;;;;;;;;;;5054113;28;1268;-87
2021/12/22 02:50:27;;;;;;;;;;;;;;;;;;5054246;28;1470;-88
2021/12/22 02:53:06;;;;;;;;;;;;;;;;;;5053896;28;1237;-88
2021/12/22 02:55:44;;;;;;;;;;;;;;;;;;5057736;28;841;-86
2021/12/22 02:58:12;;;;;;;;;;;;;;;;;;5056178;28;1392;-86
2021/12/22 03:01:05;;;;;;;;;;;;;;;;;;5053918;28;1870;-86
2021/12/22 03:03:47;;;;;;;;;;;;;;;;;;5057974;28;1306;-86
2021/12/22 03:06:16;;;;;;;;;;;;;;;;;;5053745;28;1428;-88
2021/12/22 03:08:41;;;;;;;;;;;;;;;;;;5052801;28;1334;-87
2021/12/22 03:11:06;;;;;;;;;;;;;;;;;;5053542;28;1288;-87
2021/12/22 03:13:32;;;;;;;;;;;;;;;;;;5053536;28;1198;-89
2021/12/22 03:15:57;;;;;;;;;;;;;;;;;;5058311;28;1174;-87
2021/12/22 03:18:22;;;;;;;;;;;;;;;;;;5053720;28;1461;-88
2021/12/22 03:20:54;;;;;;;;;;;;;;;;;;5053747;28;1948;-88
2021/12/22 03:23:20;;;;;;;;;;;;;;;;;;5053550;28;1215;-88
2021/12/22 03:25:46;;;;;;;;;;;;;;;;;;5054671;28;1265;-89
2021/12/22 03:28:11;;;;;;;;;;;;;;;;;;5053371;28;1641;-88
2021/12/22 03:30:36;;;;;;;;;;;;;;;;;;5053346;28;1536;-88
2021/12/22 03:33:02;;;;;;;;;;;;;;;;;;5053474;28;1155;-89
2021/12/22 03:35:27;;;;;;;;;;;;;;;;;;5053901;28;1251;-87
2021/12/22 03:37:52;;;;;;;;;;;;;;;;;;5055515;28;1207;-86
2021/12/22 03:40:17;;;;;;;;;;;;;;;;;;5055954;28;1886;-86
2021/12/22 03:42:42;;;;;;;;;;;;;;;;;;5056212;28;1309;-86
2021/12/22 03:45:07;;;;;;;;;;;;;;;;;;5053539;28;1509;-87
2021/12/22 03:47:32;;;;;;;;;;;;;;;;;;5046276;23;2302;-90
2021/12/22 03:49:57;;;;;;;;;;;;;;;;;;4993412;28;1375;-89
2021/12/22 03:52:22;;;;;;;;;;;;;;;;;;4993727;28;1200;-89
2021/12/22 03:54:47;;;;;;;;;;;;;;;;;;4994747;28;977;-90
2021/12/22 03:57:12;;;;;;;;;;;;;;;;;;4993209;28;1218;-89
2021/12/22 03:59:37;;;;;;;;;;;;;;;;;;4976817;28;1316;-88
2021/12/22 04:02:02;;;;;;;;;;;;;;;;;;4976929;28;1988;-89
2021/12/22 04:04:27;;;;;;;;;;;;;;;;;;4994481;28;1070;-88
2021/12/22 04:06:53;;;;;;;;;;;;;;;;;;4976991;28;1201;-88
2021/12/22 04:09:18;;;;;;;;;;;;;;;;;;4994638;28;892;-89
2021/12/22 04:11:43;;;;;;;;;;;;;;;;;;4976963;28;1281;-89
2021/12/22 04:14:08;;;;;;;;;;;;;;;;;;4977391;28;1202;-90
2021/12/22 04:16:33;;;;;;;;;;;;;;;;;;4976981;28;1255;-90
2021/12/22 04:18:58;;;;;;;;;;;;;;;;;;4976875;28;1316;-89
2021/12/22 04:21:23;;;;;;;;;;;;;;;;;;4975820;28;1956;-90
2021/12/22 04:23:48;;;;;;;;;;;;;;;;;;4994432;28;864;-89
2021/12/22 04:26:13;;;;;;;;;;;;;;;;;;4994354;28;834;-89
2021/12/22 04:28:39;;;;;;;;;;;;;;;;;;4976818;28;1266;-89
2021/12/22 04:31:04;;;;;;;;;;;;;;;;;;4977118;28;1345;-89
2021/12/22 04:33:29;;;;;;;;;;;;;;;;;;4976838;28;1111;-90
2021/12/22 04:35:55;;;;;;;;;;;;;;;;;;4976949;28;1257;-90
2021/12/22 04:38:20;;;;;;;;;;;;;;;;;;4977023;28;1261;-89
2021/12/22 04:40:45;;;;;;;;;;;;;;;;;;4977189;28;1882;-89
2021/12/22 04:43:10;;;;;;;;;;;;;;;;;;4976693;28;1169;-88
2021/12/22 04:45:35;;;;;;;;;;;;;;;;;;4994224;28;996;-89
2021/12/22 04:48:00;;;;;;;;;;;;;;;;;;4977384;28;1225;-89
2021/12/22 04:50:25;;;;;;;;;;;;;;;;;;4976667;28;1179;-90
2021/12/22 04:53:00;;;;;;;;;;;;;;;;;;4994641;28;1075;-87
2021/12/22 04:55:25;;;;;;;;;;;;;;;;;;4977346;28;1221;-88
2021/12/22 04:57:50;;;;;;;;;;;;;;;;;;4978415;28;1218;-88
2021/12/22 05:00:15;;;;;;;;;;;;;;;;;;4976491;28;1952;-91
2021/12/22 05:02:41;;;;;;;;;;;;;;;;;;4976600;28;1326;-88
2021/12/22 05:05:06;;;;;;;;;;;;;;;;;;4976373;28;1586;-90
2021/12/22 05:07:31;;;;;;;;;;;;;;;;;;4976347;28;1467;-90
2021/12/22 05:09:56;;;;;;;;;;;;;;;;;;4976555;28;1419;-89
2021/12/22 05:12:21;;;;;;;;;;;;;;;;;;4976431;28;1184;-89
2021/12/22 05:14:49;;;;;;;;;;;;;;;;;;4976471;28;1166;-89
2021/12/22 05:17:22;;;;;;;;;;;;;;;;;;4976437;28;1434;-89
2021/12/22 05:19:47;;;;;;;;;;;;;;;;;;4976758;28;1424;-89
2021/12/22 05:22:12;;;;;;;;;;;;;;;;;;4976476;28;1886;-89
2021/12/22 05:24:37;;;;;;;;;;;;;;;;;;4976289;28;1692;-88
2021/12/22 05:27:02;;;;;;;;;;;;;;;;;;4993996;28;1703;-89
2021/12/22 05:29:27;;;;;;;;;;;;;;;;;;4993886;28;1016;-88
2021/12/22 05:31:55;;;;;;;;;;;;;;;;;;4996990;28;1075;-88
2021/12/22 05:34:20;;;;;;;;;;;;;;;;;;5001724;28;916;-87
2021/12/22 05:36:45;;;;;;;;;;;;;;;;;;4980868;28;1373;-86
2021/12/22 05:39:10;;;;;;;;;;;;;;;;;;4996903;28;1062;-89
2021/12/22 05:41:54;;;;;;;;;;;;;;;;;;4979398;28;1883;-89
2021/12/22 05:44:19;;;;;;;;;;;;;;;;;;4994057;28;920;-90
2021/12/22 05:46:44;;;;;;;;;;;;;;;;;;4979292;28;1382;-88
2021/12/22 05:49:09;;;;;;;;;;;;;;;;;;4979458;28;1115;-88
2021/12/22 05:51:35;;;;;;;;;;;;;;;;;;4979486;28;1331;-88
2021/12/22 05:54:00;;;;;;;;;;;;;;;;;;4979391;28;1645;-89
2021/12/22 05:56:30;;;;;;;;;;;;;;;;;;4979095;28;1582;-89
2021/12/22 05:58:55;;;;;;;;;;;;;;;;;;4979402;28;1713;-89
2021/12/22 06:01:20;;;;;;;;;;;;;;;;;;4996845;28;1906;-87
2021/12/22 06:03:45;;;;;;;;;;;;;;;;;;4972974;28;1319;-90
2021/12/22 06:06:10;;;;;;;;;;;;;;;;;;4991466;28;1703;-87
2021/12/22 06:08:35;;;;;;;;;;;;;;;;;;4978866;28;1448;-89
2021/12/22 06:11:01;;;;;;;;;;;;;;;;;;4996947;28;1016;-88
2021/12/22 06:13:26;;;;;;;;;;;;;;;;;;4998699;28;1012;-86
2021/12/22 06:15:51;;;;;;;;;;;;;;;;;;4979488;28;1286;-88
2021/12/22 06:18:16;;;;;;;;;;;;;;;;;;4979304;28;1270;-86
2021/12/22 06:20:41;;;;;;;;;;;;;;;;;;4997997;28;1906;-88
2021/12/22 06:23:07;;;;;;;;;;;;;;;;;;4979060;28;1201;-86
2021/12/22 06:25:32;;;;;;;;;;;;;;;;;;4978846;28;1431;-87
2021/12/22 06:27:57;;;;;;;;;;;;;;;;;;4979079;28;1191;-82
2021/12/22 06:30:22;;;;;;;;;;;;;;;;;;4995823;28;1000;-88
2021/12/22 06:32:47;;;;;;;;;;;;;;;;;;4996135;28;1015;-86
2021/12/22 06:35:12;;;;;;;;;;;;;;;;;;4996150;28;1026;-88
2021/12/22 06:37:37;;;;;;;;;;;;;;;;;;4978404;28;1252;-87
2021/12/22 06:40:02;;;;;;;;;;;;;;;;;;4978179;28;1894;-90
2021/12/22 06:42:27;;;;;;;;;;;;;;;;;;4996064;28;1118;-88
2021/12/22 06:44:52;;;;;;;;;;;;;;;;;;4995189;28;948;-88
2021/12/22 06:47:17;;;;;;;;;;;;;;;;;;4978655;28;1205;-88
2021/12/22 06:49:42;;;;;;;;;;;;;;;;;;4978434;28;1306;-87
2021/12/22 06:52:07;;;;;;;;;;;;;;;;;;4996443;28;1015;-86
2021/12/22 06:54:32;;;;;;;;;;;;;;;;;;4996585;28;1047;-90
2021/12/22 06:56:57;;;;;;;;;;;;;;;;;;4978650;28;1285;-87
2021/12/22 06:59:23;;;;;;;;;;;;;;;;;;4995719;28;1048;-89
2021/12/22 07:01:49;;;;;;;;;;;;;;;;;;4978372;28;1894;-88
2021/12/22 07:04:15;;;;;;;;;;;;;;;;;;4995971;28;818;-88
2021/12/22 07:06:40;;;;;;;;;;;;;;;;;;4995935;28;854;-87
2021/12/22 07:09:05;;;;;;;;;;;;;;;;;;4978422;28;1351;-88
2021/12/22 07:11:30;;;;;;;;;;;;;;;;;;4995940;28;940;-88
2021/12/22 07:13:55;;;;;;;;;;;;;;;;;;4995490;28;997;-88
2021/12/22 07:16:20;;;;;;;;;;;;;;;;;;4979829;28;1316;-87
2021/12/22 07:18:45;;;;;;;;;;;;;;;;;;4995641;28;1173;-88
2021/12/22 07:21:11;;;;;;;;;;;;;;;;;;4995714;28;1882;-87
2021/12/22 07:23:36;;;;;;;;;;;;;;;;;;4995593;28;889;-87
2021/12/22 07:26:01;;;;;;;;;;;;;;;;;;4978030;28;1174;-87
2021/12/22 07:28:26;;;;;;;;;;;;;;;;;;4977694;28;1201;-88
2021/12/22 07:30:51;;;;;;;;;;;;;;;;;;4977968;28;1170;-88
2021/12/22 07:33:17;;;;;;;;;;;;;;;;;;4995526;28;1066;-87
2021/12/22 07:35:42;;;;;;;;;;;;;;;;;;4997093;28;1467;-89
2021/12/22 07:38:07;;;;;;;;;;;;;;;;;;4981129;28;1318;-88
2021/12/22 07:40:32;;;;;;;;;;;;;;;;;;4980994;28;1867;-87
2021/12/22 07:42:57;;;;;;;;;;;;;;;;;;4978575;28;1400;-88
2021/12/22 07:45:22;;;;;;;;;;;;;;;;;;4995206;28;805;-86
2021/12/22 07:47:47;;;;;;;;;;;;;;;;;;4994938;28;1159;-87
2021/12/22 07:50:13;;;;;;;;;;;;;;;;;;4977475;28;1190;-86
2021/12/22 07:52:38;;;;;;;;;;;;;;;;;;4977656;28;1374;-87
2021/12/22 07:55:03;;;;;;;;;;;;;;;;;;4977468;28;1318;-87
2021/12/22 07:57:28;;;;;;;;;;;;;;;;;;4977372;28;1311;-88
2021/12/22 07:59:53;;;;;;;;;;;;;;;;;;4977295;28;1314;-87
2021/12/22 08:02:18;;;;;;;;;;;;;;;;;;4977221;28;1894;-89
2021/12/22 08:04:43;;;;;;;;;;;;;;;;;;4977290;28;1225;-88
2021/12/22 08:07:08;;;;;;;;;;;;;;;;;;4977867;28;1333;-88
2021/12/22 08:09:33;;;;;;;;;;;;;;;;;;4977770;28;1192;-85
2021/12/22 08:12:04;;;;;;;;;;;;;;;;;;4995041;28;802;-88
2021/12/22 08:14:29;;;;;;;;;;;;;;;;;;4977312;28;1354;-87
2021/12/22 08:16:54;;;;;;;;;;;;;;;;;;4994884;28;1280;-87
2021/12/22 08:19:19;;;;;;;;;;;;;;;;;;4979360;28;1247;-88
2021/12/22 08:21:44;;;;;;;;;;;;;;;;;;4995330;28;1949;-87
2021/12/22 08:24:09;;;;;;;;;;;;;;;;;;4977616;28;1754;-87
2021/12/22 08:26:34;;;;;;;;;;;;;;;;;;4994521;28;1078;-88
2021/12/22 08:29:00;;;;;;;;;;;;;;;;;;4977195;28;1276;-86
2021/12/22 08:31:25;;;;;;;;;;;;;;;;;;4979886;28;1230;-88
2021/12/22 08:33:50;;;;;;;;;;;;;;;;;;4995111;28;992;-86
2021/12/22 08:39:00;;;;;;;;;;;;;;;;;;4994926;28;1221;-85
2021/12/22 08:41:25;;;;;;;;;;;;;;;;;;4977557;28;1890;-87
2021/12/22 08:43:50;;;;;;;;;;;;;;;;;;4995122;28;1004;-87
2021/12/22 08:46:15;;;;;;;;;;;;;;;;;;4977632;28;1286;-87
2021/12/22 08:48:40;;;;;;;;;;;;;;;;;;4976646;28;1267;-89
2021/12/22 08:51:05;;;;;;;;;;;;;;;;;;4978108;28;1289;-88
2021/12/22 08:53:30;;;;;;;;;;;;;;;;;;4977562;28;1226;-87
2021/12/22 08:55:55;;;;;;;;;;;;;;;;;;4976974;28;1186;-87
2021/12/22 08:58:20;;;;;;;;;;;;;;;;;;4976709;28;1209;-86
2021/12/22 09:00:45;;;;;;;;;;;;;;;;;;4976617;28;1897;-87
2021/12/22 09:03:11;;;;;;;;;;;;;;;;;;4994295;28;929;-87
2021/12/22 09:05:36;;;;;;;;;;;;;;;;;;4977382;28;1294;-87
2021/12/22 09:08:01;;;;;;;;;;;;;;;;;;4978787;28;1283;-87
2021/12/22 09:10:26;;;;;;;;;;;;;;;;;;4998412;28;869;-87
2021/12/22 09:12:51;;;;;;;;;;;;;;;;;;4981420;28;1198;-87
2021/12/22 09:15:17;;;;;;;;;;;;;;;;;;4998793;28;925;-90
2021/12/22 09:17:42;;;;;;;;;;;;;;;;;;4997971;28;1175;-88
2021/12/22 09:20:07;;;;;;;;;;;;;;;;;;4980517;28;1953;-89
2021/12/22 09:22:32;;;;;;;;;;;;;;;;;;4981308;28;1058;-89
2021/12/22 09:24:57;;;;;;;;;;;;;;;;;;4981272;28;1193;-88
2021/12/22 09:27:22;;;;;;;;;;;;;;;;;;4997669;28;1153;-89
2021/12/22 09:29:47;;;;;;;;;;;;;;;;;;4980560;28;1267;-88
2021/12/22 09:32:15;;;;;;;;;;;;;;;;;;4980811;28;1238;-90
2021/12/22 09:34:40;;;;;;;;;;;;;;;;;;4980982;28;1594;-88
2021/12/22 09:37:05;;;;;;;;;;;;;;;;;;4997839;28;1197;-89
2021/12/22 09:39:30;;;;;;;;;;;;;;;;;;4997761;28;1051;-88
2021/12/22 09:41:55;;;;;;;;;;;;;;;;;;4980295;28;1944;-87
2021/12/22 09:44:20;;;;;;;;;;;;;;;;;;4980652;28;1232;-88
2021/12/22 09:46:45;;;;;;;;;;;;;;;;;;5005811;28;1196;-88
2021/12/22 09:49:35;;;;;;;;;;;;;;;;;;5000619;28;802;-88
2021/12/22 09:52:16;;;;;;;;;;;;;;;;;;4997281;28;1198;-87
2021/12/22 09:54:41;;;;;;;;;;;;;;;;;;4996778;28;889;-89
2021/12/22 09:57:06;;;;;;;;;;;;;;;;;;4979226;28;1424;-88
2021/12/22 09:59:31;;;;;;;;;;;;;;;;;;4997005;28;1012;-88
2021/12/22 10:01:56;;;;;;;;;;;;;;;;;;4979303;28;1902;-88
2021/12/22 10:04:22;;;;;;;;;;;;;;;;;;4996702;28;1206;-88
2021/12/22 10:06:47;;;;;;;;;;;;;;;;;;4995636;28;1206;-88
2021/12/22 10:09:12;;;;;;;;;;;;;;;;;;4995280;28;1321;-89
2021/12/22 10:11:37;;;;;;;;;;;;;;;;;;4996960;28;1181;-89
2021/12/22 10:14:02;;;;;;;;;;;;;;;;;;4996879;28;1063;-87
2021/12/22 10:16:27;;;;;;;;;;;;;;;;;;4995700;28;1270;-88
2021/12/22 10:18:52;;;;;;;;;;;;;;;;;;4996590;28;1200;-87
2021/12/22 10:21:17;;;;;;;;;;;;;;;;;;4996920;28;1878;-88
2021/12/22 10:23:42;;;;;;;;;;;;;;;;;;4996841;28;1078;-88
2021/12/22 10:26:07;;;;;;;;;;;;;;;;;;4996815;28;996;-88
2021/12/22 10:28:32;;;;;;;;;;;;;;;;;;4995795;28;1304;-89
2021/12/22 10:30:58;;;;;;;;;;;;;;;;;;4996568;28;1012;-89
2021/12/22 10:33:23;;;;;;;;;;;;;;;;;;4996423;28;864;-88
2021/12/22 10:35:48;;;;;;;;;;;;;;;;;;4995417;28;1276;-88
2021/12/22 10:38:13;;;;;;;;;;;;;;;;;;4994759;28;1357;-88
2021/12/22 10:40:38;;;;;;;;;;;;;;;;;;4995076;28;1879;-87
2021/12/22 10:43:03;;;;;;;;;;;;;;;;;;4995156;28;1348;-89
2021/12/22 10:45:28;;;;;;;;;;;;;;;;;;4994896;28;1263;-88
2021/12/22 10:50:37;;;;;;;;;;;;;;;;;;4996216;28;680;-88
2021/12/22 10:53:03;;;;;;;;;;;;;;;;;;4994690;28;1493;-88
2021/12/22 10:55:28;;;;;;;;;;;;;;;;;;4995593;28;1180;-87
2021/12/22 10:57:53;;;;;;;;;;;;;;;;;;4994875;28;1231;-87
2021/12/22 11:00:18;;;;;;;;;;;;;;;;;;4994438;28;1926;-88
2021/12/22 11:02:49;;;;;;;;;;;;;;;;;;4994613;28;1316;-88
2021/12/22 11:05:14;;;;;;;;;;;;;;;;;;4994663;28;1224;-89
2021/12/22 11:07:41;;;;;;;;;;;;;;;;;;4995952;28;1195;-85
2021/12/22 11:10:06;;;;;;;;;;;;;;;;;;4997113;28;1377;-89
2021/12/22 11:12:31;;;;;;;;;;;;;;;;;;4998185;28;817;-87
2021/12/22 11:14:56;;;;;;;;;;;;;;;;;;4994595;28;1242;-88
2021/12/22 11:17:22;;;;;;;;;;;;;;;;;;4994420;28;1313;-88
2021/12/22 11:19:47;;;;;;;;;;;;;;;;;;4995226;28;1377;-88
2021/12/22 11:22:14;;;;;;;;;;;;;;;;;;4996084;28;1980;-88
2021/12/22 11:24:39;;;;;;;;;;;;;;;;;;4994477;28;1414;-87
2021/12/22 11:27:04;;;;;;;;;;;;;;;;;;4994223;28;1276;-86
2021/12/22 11:29:29;;;;;;;;;;;;;;;;;;4993722;28;1293;-88
2021/12/22 11:31:54;;;;;;;;;;;;;;;;;;4989050;28;1550;-86
2021/12/22 11:34:20;;;;;;;;;;;;;;;;;;4982252;28;1119;-87
2021/12/22 11:36:45;;;;;;;;;;;;;;;;;;4979626;28;1456;-87
2021/12/22 11:39:10;;;;;;;;;;;;;;;;;;4978191;28;1238;-89
2021/12/22 11:41:43;;;;;;;;;;;;;;;;;;4978819;28;1940;-90
2021/12/22 11:44:08;;;;;;;;;;;;;;;;;;4978168;28;1230;-90
2021/12/22 11:46:33;;;;;;;;;;;;;;;;;;4980080;28;1216;-88
2021/12/22 11:48:58;;;;;;;;;;;;;;;;;;4978794;28;1328;-87
2021/12/22 11:51:23;;;;;;;;;;;;;;;;;;4994651;28;1276;-87
2021/12/22 11:53:48;;;;;;;;;;;;;;;;;;4995280;28;1083;-89
2021/12/22 11:56:13;;;;;;;;;;;;;;;;;;4978114;28;1185;-89
2021/12/22 11:58:38;;;;;;;;;;;;;;;;;;4977380;28;1202;-89
2021/12/22 12:01:08;;;;;;;;;;;;;;;;;;4977678;28;1906;-88
2021/12/22 12:03:41;;;;;;;;;;;;;;;;;;4996189;28;849;-89
2021/12/22 12:06:09;;;;;;;;;;;;;;;;;;4977291;28;1340;-89
2021/12/22 12:08:34;;;;;;;;;;;;;;;;;;4977755;28;1365;-90
2021/12/22 12:11:00;;;;;;;;;;;;;;;;;;4977476;28;1257;-89
2021/12/22 12:13:34;;;;;;;;;;;;;;;;;;4977653;28;1331;-89
2021/12/22 12:21:37;;;;;;;;;;;;;;;;;;4977578;28;1238;-88
2021/12/22 12:21:40;;;;;;;;;;;;;;;;;;4995560;28;1894;-89
2021/12/22 12:24:05;;;;;;;;;;;;;;;;;;4977584;28;1311;-86
2021/12/22 12:26:30;;;;;;;;;;;;;;;;;;4977717;28;1248;-87
2021/12/22 12:28:55;;;;;;;;;;;;;;;;;;4977013;28;1244;-88
2021/12/22 12:31:20;;;;;;;;;;;;;;;;;;4975539;28;1209;-87
2021/12/22 12:33:46;;;;;;;;;;;;;;;;;;4978350;28;1273;-89
2021/12/22 12:36:11;;;;;;;;;;;;;;;;;;4977471;28;1198;-88
2021/12/22 12:38:36;;;;;;;;;;;;;;;;;;4978002;28;1268;-88
2021/12/22 12:41:11;;;;;;;;;;;;;;;;;;4978897;28;1879;-87
2021/12/22 12:43:36;;;;;;;;;;;;;;;;;;4987602;28;1181;-88
2021/12/22 12:46:01;;;;;;;;;;;;;;;;;;4983291;28;1205;-89
2021/12/22 12:48:26;;;;;;;;;;;;;;;;;;4982393;28;1280;-90
2021/12/22 12:50:51;;;;;;;;;;;;;;;;;;4981834;28;1225;-90
2021/12/22 12:53:16;;;;;;;;;;;;;;;;;;4982074;28;1237;-87
2021/12/22 12:55:41;;;;;;;;;;;;;;;;;;4981789;28;1288;-90
2021/12/22 12:58:07;;;;;;;;;;;;;;;;;;4982827;28;1255;-87
2021/12/22 13:00:32;;;;;;;;;;;;;;;;;;4984824;28;1898;-87
2021/12/22 13:02:57;;;;;;;;;;;;;;;;;;4982409;28;1351;-87
2021/12/22 13:05:22;;;;;;;;;;;;;;;;;;4981799;28;1257;-89
2021/12/22 13:07:47;;;;;;;;;;;;;;;;;;4997945;28;1263;-88
2021/12/22 13:10:14;;;;;;;;;;;;;;;;;;4981053;28;1333;-89
2021/12/22 13:17:53;;;;;;;;;;;;;;;;;;4998718;28;1176;-90
2021/12/22 13:20:18;;;;;;;;;;;;;;;;;;4980674;28;1891;-90
2021/12/22 13:22:43;;;;;;;;;;;;;;;;;;4983784;28;1098;-87
2021/12/22 13:25:08;;;;;;;;;;;;;;;;;;4997016;28;833;-88
2021/12/22 13:27:33;;;;;;;;;;;;;;;;;;4979876;28;1370;-89
2021/12/22 13:29:58;;;;;;;;;;;;;;;;;;4979946;28;1178;-89
2021/12/22 13:32:23;;;;;;;;;;;;;;;;;;4983068;28;1697;-90
2021/12/22 13:34:50;;;;;;;;;;;;;;;;;;4982288;28;1325;-88
2021/12/22 13:37:15;;;;;;;;;;;;;;;;;;4980161;28;1349;-92
2021/12/22 13:39:40;;;;;;;;;;;;;;;;;;4979665;28;1459;-91
2021/12/22 13:42:06;;;;;;;;;;;;;;;;;;4979831;28;1954;-90
2021/12/22 13:44:32;;;;;;;;;;;;;;;;;;4997043;28;901;-89
2021/12/22 13:46:57;;;;;;;;;;;;;;;;;;4997228;28;1200;-89
2021/12/22 13:49:22;;;;;;;;;;;;;;;;;;4979563;28;1202;-87
2021/12/22 13:51:47;;;;;;;;;;;;;;;;;;4997533;28;1079;-88
2021/12/22 13:54:12;;;;;;;;;;;;;;;;;;4979720;28;1123;-88
2021/12/22 13:56:37;;;;;;;;;;;;;;;;;;4980608;28;1322;-88
2021/12/22 13:59:02;;;;;;;;;;;;;;;;;;4999854;28;1236;-90
2021/12/22 14:01:27;;;;;;;;;;;;;;;;;;4990305;28;1879;-90
2021/12/22 14:03:52;;;;;;;;;;;;;;;;;;4994174;28;1747;-88
2021/12/22 14:06:20;;;;;;;;;;;;;;;;;;5008534;28;1751;-88
2021/12/22 14:08:45;;;;;;;;;;;;;;;;;;4979141;28;1621;-89
2021/12/22 14:11:10;;;;;;;;;;;;;;;;;;4997039;28;1448;-90
2021/12/22 14:13:35;;;;;;;;;;;;;;;;;;4979388;28;1412;-90
2021/12/22 14:16:00;;;;;;;;;;;;;;;;;;4979436;28;1197;-89
2021/12/22 14:18:26;;;;;;;;;;;;;;;;;;4979016;28;1370;-89
2021/12/22 14:20:51;;;;;;;;;;;;;;;;;;4979137;28;1953;-90
2021/12/22 14:23:16;;;;;;;;;;;;;;;;;;4979346;28;1256;-90
2021/12/22 14:25:41;;;;;;;;;;;;;;;;;;4978958;28;1728;-89
2021/12/22 14:28:06;;;;;;;;;;;;;;;;;;4978921;28;1345;-92
2021/12/22 14:30:31;;;;;;;;;;;;;;;;;;4996639;28;1173;-90
2021/12/22 14:32:57;;;;;;;;;;;;;;;;;;4996812;28;880;-92
2021/12/22 14:35:22;;;;;;;;;;;;;;;;;;4996275;28;1212;-90
2021/12/22 14:37:48;;;;;;;;;;;;;;;;;;4978438;28;1673;-92
2021/12/22 14:40:14;;;;;;;;;;;;;;;;;;4978744;28;1887;-91
2021/12/22 14:42:39;;;;;;;;;;;;;;;;;;4978857;28;1286;-90
2021/12/22 14:45:04;;;;;;;;;;;;;;;;;;4978666;28;1361;-92
2021/12/22 15:59:49;;;;;;;;;;;;;;;;;;5052029;28;1164;-90
2021/12/22 16:02:14;;;;;;;;;;;;;;;;;;5053849;28;1972;-90
2021/12/22 16:04:41;;;;;;;;;;;;;;;;;;5053881;28;1702;-90
2021/12/22 16:07:07;;;;;;;;;;;;;;;;;;5053187;28;1544;-90
2021/12/22 16:09:33;;;;;;;;;;;;;;;;;;5053134;28;1560;-90
2021/12/22 16:11:58;;;;;;;;;;;;;;;;;;5052927;28;1176;-92
2021/12/22 16:14:29;;;;;;;;;;;;;;;;;;5054938;28;1460;-88
2021/12/22 16:20:03;;;;;;;;;;;;;;;;;;5015337;28;1376;-88
2021/12/22 16:22:34;;;;;;;;;;;;;;;;;;5014956;28;1989;-89
2021/12/22 16:24:59;;;;;;;;;;;;;;;;;;5036244;28;1348;-90
2021/12/22 16:27:24;;;;;;;;;;;;;;;;;;5056788;28;1426;-89
2021/12/22 16:29:54;;;;;;;;;;;;;;;;;;5055822;28;1614;-86
2021/12/22 16:32:33;;;;;;;;;;;;;;;;;;5057072;28;1160;-87
2021/12/22 16:37:42;;;;;;;;;;;;;;;;;;5056349;28;1225;-88
2021/12/22 16:40:14;;;;;;;;;;;;;;;;;;5055622;28;1752;-87
2021/12/22 16:42:50;;;;;;;;;;;;;;;;;;5055971;28;1938;-87
2021/12/22 16:45:31;;;;;;;;;;;;;;;;;;;;;
2021/12/22 16:48:00;;;;;;;;;;;;;;;;;;5058234;28;1315;-88
2021/12/22 16:50:25;;;;;;;;;;;;;;;;;;5055169;28;1464;-90
2021/12/22 16:52:50;;;;;;;;;;;;;;;;;;5053020;28;1271;-90
2021/12/22 16:55:17;;;;;;;;;;;;;;;;;;5053367;28;1353;-91
2021/12/22 16:57:42;;;;;;;;;;;;;;;;;;5052498;28;1476;-90
2021/12/22 17:00:10;;;;;;;;;;;;;;;;;;5052944;28;1350;-90
2021/12/22 17:02:35;;;;;;;;;;;;;;;;;;5057336;28;1945;-90
2021/12/22 17:05:00;;;;;;;;;;;;;;;;;;5054028;28;1294;-91
2021/12/22 17:07:26;;;;;;;;;;;;;;;;;;5052865;28;1291;-91
2021/12/22 17:09:51;;;;;;;;;;;;;;;;;;5057588;28;1130;-90
2021/12/22 17:12:19;;;;;;;;;;;;;;;;;;5055132;28;1403;-91
2021/12/22 17:14:45;;;;;;;;;;;;;;;;;;5052710;28;1236;-90
2021/12/22 17:17:16;;;;;;;;;;;;;;;;;;5052170;28;1259;-91
2021/12/22 17:19:41;;;;;;;;;;;;;;;;;;5052092;28;1192;-90
2021/12/22 17:22:06;;;;;;;;;;;;;;;;;;5054170;28;1887;-89
2021/12/22 17:24:31;;;;;;;;;;;;;;;;;;5053034;28;1384;-90
2021/12/22 17:26:57;;;;;;;;;;;;;;;;;;5052731;28;1185;-90
2021/12/22 17:29:22;;;;;;;;;;;;;;;;;;5055798;28;1277;-90
2021/12/22 17:31:47;;;;;;;;;;;;;;;;;;5057188;28;1135;-91
2021/12/22 17:34:12;;;;;;;;;;;;;;;;;;5056909;28;1121;-90
2021/12/22 17:36:37;;;;;;;;;;;;;;;;;;5057567;28;1315;-90
2021/12/22 17:39:02;;;;;;;;;;;;;;;;;;5057150;28;1653;-90
2021/12/22 17:41:27;;;;;;;;;;;;;;;;;;5057359;28;1885;-89
2021/12/22 17:43:52;;;;;;;;;;;;;;;;;;5056874;28;1278;-89
2021/12/22 17:46:17;;;;;;;;;;;;;;;;;;5059235;28;1536;-90
2021/12/22 17:48:42;;;;;;;;;;;;;;;;;;5055514;28;1204;-89
2021/12/22 17:51:07;;;;;;;;;;;;;;;;;;5056846;28;1433;-89
2021/12/22 17:53:32;;;;;;;;;;;;;;;;;;5059274;28;999;-90
2021/12/22 17:55:58;;;;;;;;;;;;;;;;;;5059134;28;1218;-90
2021/12/22 17:58:23;;;;;;;;;;;;;;;;;;5056742;28;1185;-88
2021/12/22 18:00:48;;;;;;;;;;;;;;;;;;5056990;28;1899;-90
2021/12/22 18:03:13;;;;;;;;;;;;;;;;;;5057194;28;1246;-89
2021/12/22 18:05:41;;;;;;;;;;;;;;;;;;5057381;28;1239;-89
2021/12/22 18:08:06;;;;;;;;;;;;;;;;;;5056883;28;1351;-90
2021/12/22 18:10:31;;;;;;;;;;;;;;;;;;5057081;28;1310;-89
2021/12/22 18:12:57;;;;;;;;;;;;;;;;;;5057436;28;1255;-89
2021/12/22 18:15:22;;;;;;;;;;;;;;;;;;5057561;28;1298;-90
2021/12/22 18:17:47;;;;;;;;;;;;;;;;;;5064113;28;1330;-89
2021/12/22 18:20:12;;;;;;;;;;;;;;;;;;5064127;28;1658;-88
2021/12/22 18:22:37;;;;;;;;;;;;;;;;;;5059207;28;1863;-92
2021/12/22 18:25:02;;;;;;;;;;;;;;;;;;5054932;28;1672;-92
2021/12/22 18:27:27;;;;;;;;;;;;;;;;;;5054637;28;1314;-93
2021/12/22 18:29:53;;;;;;;;;;;;;;;;;;5054174;28;1279;-92
2021/12/22 18:32:18;;;;;;;;;;;;;;;;;;5055073;28;1203;-90